Terminal Aerodrome Forecast
Issued by NWS

Home | Current Version | Previous Version | Text Only | Print | Product List | Glossary On
Versions: 1 2 3 4 5 6 7 8 9 10 11 12 13 14 15 16 17 18 19 20 21 22 23 24 25 26 27 28 29 30 31 32 33 34 35 36 37 38 39 40 41 42
000
FTUS41 KPBZ 152331
TAFZZV
TAF
KZZV 152331Z 1600/1624 20005KT P6SM -SHRA OVC100
     FM160700 22011KT P6SM -SHRA OVC020
     FM161100 23009KT P6SM VCSH OVC009
     FM161600 23007KT P6SM -SHRA OVC012
     FM162100 23006KT P6SM -SHRA OVC022=

USA.gov is the U.S. government's official web portal to all federal, state and local government web resources and services.